Time;durP1;ratioP1;P1;durP2;ratioP2;P2;SDS_P1;SDS_P2;PMS_P1;PMS_P2;Temp;Humidity;BMP_temperature;BMP_pressure;BME280_temperature;BME280_humidity;BME280_pressure;Samples;Min_cycle;Max_cycle;Signal;HPM_P1;HPM_P2
2023/06/17 00:04:25;;;;;;;;;;;;;;;14.39;100.00;97701.69;18561237;32;19976;-58
2023/06/17 00:14:28;;;;;;;;;;;;;;;14.24;100.00;97694.53;18560565;32;19987;-58
2023/06/17 00:24:31;;;;;;;;;;;;;;;14.07;100.00;97692.31;18560277;32;20010;-59
2023/06/17 00:34:33;;;;;;;;;;;;;;;13.90;100.00;97684.66;18560254;32;20005;-58
2023/06/17 00:44:36;;;;;;;;;;;;;;;13.80;100.00;97668.44;18553401;32;20286;-59
2023/06/17 00:54:40;;;;;;;;;;;;;;;13.69;100.00;97668.59;18572120;32;20345;-59
2023/06/17 01:04:46;;;;;;;;;;;;;;;13.53;100.00;97664.44;18571891;32;19953;-58
2023/06/17 01:14:50;;;;;;;;;;;;;;;13.36;100.00;97667.59;18570750;32;19976;-59
2023/06/17 01:24:53;;;;;;;;;;;;;;;13.21;100.00;97672.06;18570051;31;19952;-59
2023/06/17 01:35:14;;;;;;;;;;;;;;;13.11;100.00;97665.94;18569639;32;19954;-59
2023/06/17 01:45:18;;;;;;;;;;;;;;;12.92;100.00;97665.84;18568885;32;19993;-59
2023/06/17 01:55:21;;;;;;;;;;;;;;;12.78;100.00;97660.25;18567259;32;20264;-59
2023/06/17 02:05:25;;;;;;;;;;;;;;;12.66;100.00;97666.06;18567829;32;19956;-59
2023/06/17 02:15:27;;;;;;;;;;;;;;;12.54;100.00;97659.09;18566779;31;19944;-59
2023/06/17 02:25:29;;;;;;;;;;;;;;;12.49;100.00;97661.84;18552407;32;19967;-59
2023/06/17 02:35:32;;;;;;;;;;;;;;;12.36;100.00;97654.34;18565717;32;19991;-59
2023/06/17 02:45:34;;;;;;;;;;;;;;;12.30;100.00;97650.06;18565100;32;19953;-59
2023/06/17 02:55:37;;;;;;;;;;;;;;;12.25;100.00;97647.38;18564351;32;19987;-59
2023/06/17 03:05:41;;;;;;;;;;;;;;;12.14;100.00;97654.75;18549746;32;19994;-59
2023/06/17 03:15:43;;;;;;;;;;;;;;;12.11;100.00;97647.19;18563094;32;19956;-59
2023/06/17 03:25:47;;;;;;;;;;;;;;;12.02;100.00;97655.91;18548577;32;19997;-59
2023/06/17 03:35:50;;;;;;;;;;;;;;;11.95;100.00;97649.16;18561825;31;19970;-59
2023/06/17 03:45:52;;;;;;;;;;;;;;;11.90;100.00;97652.69;18546923;32;19992;-59
2023/06/17 03:55:55;;;;;;;;;;;;;;;11.83;100.00;97653.00;18561363;32;20356;-59
2023/06/17 04:05:58;;;;;;;;;;;;;;;11.80;100.00;97664.41;18560894;31;20272;-59
2023/06/17 04:16:02;;;;;;;;;;;;;;;11.81;100.00;97657.91;18550530;32;19953;-59
2023/06/17 04:26:05;;;;;;;;;;;;;;;11.94;100.00;97663.78;18573859;32;20008;-59
2023/06/17 04:36:10;;;;;;;;;;;;;;;12.09;100.00;97669.16;18572850;31;20353;-59
2023/06/17 04:46:13;;;;;;;;;;;;;;;12.29;100.00;97675.53;18572681;32;19968;-59
2023/06/17 04:56:19;;;;;;;;;;;;;;;12.48;100.00;97668.34;18571722;32;19964;-59
2023/06/17 05:06:23;;;;;;;;;;;;;;;12.78;100.00;97663.78;18571058;32;19989;-59
2023/06/17 05:16:26;;;;;;;;;;;;;;;13.08;100.00;97664.59;18570876;32;19986;-59
2023/06/17 05:26:29;;;;;;;;;;;;;;;13.45;100.00;97674.03;18570036;32;20351;-59
2023/06/17 05:36:32;;;;;;;;;;;;;;;13.70;100.00;97674.81;18569133;31;20001;-59
2023/06/17 05:46:35;;;;;;;;;;;;;;;14.12;100.00;97675.94;18568959;32;19994;-59
2023/06/17 05:56:38;;;;;;;;;;;;;;;14.66;100.00;97678.44;18568157;31;20012;-59
2023/06/17 06:06:41;;;;;;;;;;;;;;;15.24;100.00;97686.16;18567429;32;20001;-59
2023/06/17 06:16:44;;;;;;;;;;;;;;;15.80;100.00;97688.12;18567431;32;19968;-59
2023/06/17 06:26:48;;;;;;;;;;;;;;;16.35;100.00;97690.78;18566650;32;19988;-59
2023/06/17 06:36:50;;;;;;;;;;;;;;;17.13;100.00;97711.66;18564842;32;20008;-59
2023/06/17 06:46:55;;;;;;;;;;;;;;;17.70;100.00;97723.84;18565144;32;19975;-59
2023/06/17 06:56:59;;;;;;;;;;;;;;;18.11;100.00;97722.72;18564543;32;19953;-59
2023/06/17 07:07:04;;;;;;;;;;;;;;;18.85;97.02;97723.75;18564144;32;20272;-59
2023/06/17 07:17:06;;;;;;;;;;;;;;;19.50;90.00;97726.59;18563611;32;20053;-59
2023/06/17 07:27:10;;;;;;;;;;;;;;;20.11;82.53;97733.75;18548803;32;20027;-59
2023/06/17 07:37:15;;;;;;;;;;;;;;;20.68;79.55;97735.22;18561885;32;20260;-59
2023/06/17 07:47:20;;;;;;;;;;;;;;;21.18;69.12;97741.72;18561671;32;20374;-59
2023/06/17 07:57:22;;;;;;;;;;;;;;;21.58;65.22;97730.16;18561090;32;19990;-59
2023/06/17 08:07:25;;;;;;;;;;;;;;;22.05;60.86;97723.44;18546614;32;19953;-59
2023/06/17 08:17:28;;;;;;;;;;;;;;;22.56;58.39;97725.81;18546306;32;19961;-59
2023/06/17 08:27:32;;;;;;;;;;;;;;;23.01;55.87;97710.97;18560408;32;19961;-59
2023/06/17 08:37:35;;;;;;;;;;;;;;;23.52;54.66;97715.09;18559587;31;20007;-59
2023/06/17 08:47:42;;;;;;;;;;;;;;;24.12;52.18;97701.22;18559856;32;19965;-59
2023/06/17 08:57:47;;;;;;;;;;;;;;;24.55;48.09;97687.53;18559441;32;19948;-59
2023/06/17 09:07:51;;;;;;;;;;;;;;;25.00;46.12;97696.38;18569876;32;19972;-59
2023/06/17 09:17:54;;;;;;;;;;;;;;;25.62;44.35;97687.25;18570634;32;20376;-59
2023/06/17 09:28:00;;;;;;;;;;;;;;;26.18;42.44;97686.56;18570282;32;19964;-59
2023/06/17 09:38:19;;;;;;;;;;;;;;;26.64;41.72;97680.06;18554877;32;19952;-59
2023/06/17 09:48:24;;;;;;;;;;;;;;;27.19;36.47;97676.78;18568724;32;20234;-59
2023/06/17 09:58:31;;;;;;;;;;;;;;;27.55;33.81;97665.25;18568371;32;20253;-59
2023/06/17 10:08:39;;;;;;;;;;;;;;;27.90;34.59;97666.69;18567912;32;19960;-59
2023/06/17 10:18:44;;;;;;;;;;;;;;;28.21;33.48;97662.56;18566438;32;19956;-59
2023/06/17 10:28:53;;;;;;;;;;;;;;;28.53;32.47;97652.78;18566367;31;19952;-59
2023/06/17 10:39:12;;;;;;;;;;;;;;;28.87;29.39;97649.78;18565656;31;19968;-59
2023/06/17 10:49:16;;;;;;;;;;;;;;;29.19;30.49;97647.09;18551000;32;20000;-59
2023/06/17 10:59:26;;;;;;;;;;;;;;;29.31;28.05;97651.50;18564519;32;20379;-59
2023/06/17 11:09:30;;;;;;;;;;;;;;;29.55;29.85;97646.34;18550101;32;20004;-58
2023/06/17 11:19:35;;;;;;;;;;;;;;;29.56;28.21;97645.13;18549939;32;19961;-58
2023/06/17 11:29:40;;;;;;;;;;;;;;;29.81;28.46;97634.00;18548602;32;19973;-58
2023/06/17 11:39:43;;;;;;;;;;;;;;;30.17;27.79;97631.19;18562013;31;19949;-58
2023/06/17 11:49:47;;;;;;;;;;;;;;;30.32;27.44;97634.72;18561802;32;19968;-58
2023/06/17 11:59:50;;;;;;;;;;;;;;;30.67;29.65;97621.06;18561150;32;19953;-58
2023/06/17 12:09:54;;;;;;;;;;;;;;;31.21;28.80;97618.00;18546628;32;19952;-58
2023/06/17 12:20:00;;;;;;;;;;;;;;;31.56;28.07;97608.56;18560688;31;19953;-58
2023/06/17 12:30:05;;;;;;;;;;;;;;;31.73;28.05;97600.44;18546443;32;19972;-58
2023/06/17 12:40:09;;;;;;;;;;;;;;;32.21;28.39;97605.16;18553601;31;20000;-58
2023/06/17 12:50:15;;;;;;;;;;;;;;;32.69;27.83;97589.38;18572391;32;19956;-58
2023/06/17 13:00:19;;;;;;;;;;;;;;;33.06;27.26;97584.87;18558167;32;20291;-58
2023/06/17 13:10:23;;;;;;;;;;;;;;;33.52;26.36;97584.59;18571161;32;19961;-58
2023/06/17 13:20:27;;;;;;;;;;;;;;;33.69;25.74;97568.69;18570301;32;20340;-58
2023/06/17 13:30:30;;;;;;;;;;;;;;;33.67;23.00;97555.09;18570148;32;19972;-58
2023/06/17 13:40:33;;;;;;;;;;;;;;;33.73;24.66;97547.00;18542177;31;19957;-58
2023/06/17 13:50:37;;;;;;;;;;;;;;;34.26;23.83;97549.97;18568987;32;19990;-58
2023/06/17 14:00:39;;;;;;;;;;;;;;;34.32;23.42;97548.28;18568231;32;19985;-58
2023/06/17 14:10:48;;;;;;;;;;;;;;;34.24;24.02;97530.00;18567669;32;19957;-58
2023/06/17 14:20:51;;;;;;;;;;;;;;;33.93;24.83;97528.19;18566881;32;20253;-58
2023/06/17 14:30:55;;;;;;;;;;;;;;;34.61;25.65;97522.41;18552464;32;19953;-58
2023/06/17 14:41:01;;;;;;;;;;;;;;;35.01;24.05;97525.09;18552084;32;19952;-58
2023/06/17 14:51:05;;;;;;;;;;;;;;;34.99;23.31;97513.53;18565365;32;19993;-58
2023/06/17 15:01:08;;;;;;;;;;;;;;;34.52;23.24;97510.97;18549925;32;19968;-58
2023/06/17 15:11:12;;;;;;;;;;;;;;;33.44;26.50;97492.22;18549803;32;19986;-58
2023/06/17 15:21:14;;;;;;;;;;;;;;;32.52;28.12;97479.28;18548929;32;19971;-58
2023/06/17 15:31:17;;;;;;;;;;;;;;;31.82;26.06;97480.56;18562853;32;19964;-58
2023/06/17 15:41:20;;;;;;;;;;;;;;;31.48;27.98;97474.88;18561721;32;19997;-57
2023/06/17 15:51:24;;;;;;;;;;;;;;;31.14;27.00;97470.84;18547565;32;20332;-58
2023/06/17 16:01:28;;;;;;;;;;;;;;;30.97;28.43;97468.94;18547022;32;19956;-57
2023/06/17 16:11:31;;;;;;;;;;;;;;;30.59;31.56;97458.47;18560270;32;19953;-57
2023/06/17 16:21:35;;;;;;;;;;;;;;;30.13;31.90;97448.37;18560685;32;20260;-57
2023/06/17 16:31:38;;;;;;;;;;;;;;;29.83;33.09;97453.22;18546186;32;20344;-58
2023/06/17 16:41:41;;;;;;;;;;;;;;;29.71;37.57;97451.69;18559938;32;20013;-57
2023/06/17 16:51:47;;;;;;;;;;;;;;;29.78;33.63;97445.31;18545568;32;19956;-57
2023/06/17 17:01:51;;;;;;;;;;;;;;;29.00;40.52;97439.47;18559483;32;19971;-57
2023/06/17 17:11:54;;;;;;;;;;;;;;;28.45;44.98;97432.28;18559294;32;20016;-58
2023/06/17 17:21:57;;;;;;;;;;;;;;;28.16;46.52;97428.62;18533822;32;20261;-58
2023/06/17 17:32:00;;;;;;;;;;;;;;;27.65;48.33;97436.75;18570028;32;20289;-58
2023/06/17 17:42:03;;;;;;;;;;;;;;;27.28;50.97;97434.94;18554830;32;19945;-58
2023/06/17 17:52:07;;;;;;;;;;;;;;;26.90;57.30;97437.06;18568931;32;19956;-58
2023/06/17 18:02:10;;;;;;;;;;;;;;;26.78;60.79;97434.56;18568037;32;19969;-57
2023/06/17 18:12:13;;;;;;;;;;;;;;;27.98;58.67;97450.78;18553338;32;19952;-58
2023/06/17 18:22:16;;;;;;;;;;;;;;;28.15;57.50;97454.84;18567084;32;20375;-58
2023/06/17 18:32:18;;;;;;;;;;;;;;;26.29;63.83;97453.91;18566042;32;20008;-58
2023/06/17 18:42:24;;;;;;;;;;;;;;;25.03;75.54;97441.16;18565389;32;20242;-57
2023/06/17 18:52:32;;;;;;;;;;;;;;;24.17;81.99;97451.50;18565546;32;19956;-58
2023/06/17 19:02:34;;;;;;;;;;;;;;;23.55;81.86;97437.63;18550225;32;19989;-57
2023/06/17 19:12:38;;;;;;;;;;;;;;;22.94;82.44;97443.31;18549641;32;19964;-58
2023/06/17 19:22:42;;;;;;;;;;;;;;;22.24;83.95;97452.97;18549524;32;19945;-58
2023/06/17 19:32:45;;;;;;;;;;;;;;;21.58;87.53;97460.53;18562783;31;20012;-57
2023/06/17 19:42:49;;;;;;;;;;;;;;;20.96;89.66;97474.31;18562116;32;19989;-58
2023/06/17 19:52:53;;;;;;;;;;;;;;;20.36;91.91;97484.84;18561855;32;19961;-58
2023/06/17 20:02:56;;;;;;;;;;;;;;;19.87;95.28;97496.47;18534282;32;19960;-58
2023/06/17 20:13:00;;;;;;;;;;;;;;;19.43;97.17;97496.75;18561124;32;20034;-58
2023/06/17 20:23:02;;;;;;;;;;;;;;;19.07;98.26;97505.50;18546393;32;19953;-58
2023/06/17 20:33:05;;;;;;;;;;;;;;;18.79;100.00;97505.91;18560440;32;19953;-58
2023/06/17 20:43:09;;;;;;;;;;;;;;;18.51;100.00;97509.03;18560074;32;19948;-57
2023/06/17 20:53:13;;;;;;;;;;;;;;;18.20;100.00;97506.53;18559942;32;19975;-58
2023/06/17 21:03:16;;;;;;;;;;;;;;;17.92;100.00;97526.03;18569600;32;19944;-57
2023/06/17 21:13:20;;;;;;;;;;;;;;;17.71;100.00;97523.09;18571536;32;20273;-58
2023/06/17 21:23:23;;;;;;;;;;;;;;;17.56;100.00;97527.91;18570699;31;19975;-57
2023/06/17 21:33:28;;;;;;;;;;;;;;;17.41;100.00;97526.41;18570120;32;19964;-58
2023/06/17 21:43:32;;;;;;;;;;;;;;;17.23;100.00;97530.25;18569075;32;19945;-58
2023/06/17 21:53:34;;;;;;;;;;;;;;;17.00;100.00;97532.25;18568878;32;19971;-58
2023/06/17 22:03:37;;;;;;;;;;;;;;;16.81;100.00;97530.53;18568509;32;20332;-58
2023/06/17 22:13:40;;;;;;;;;;;;;;;16.65;100.00;97529.31;18566808;32;20258;-58
2023/06/17 22:23:43;;;;;;;;;;;;;;;16.52;100.00;97518.19;18566714;32;19945;-58
2023/06/17 22:33:45;;;;;;;;;;;;;;;16.42;100.00;97515.72;18566890;32;19948;-58
2023/06/17 22:43:48;;;;;;;;;;;;;;;16.25;100.00;97514.50;18565674;32;19960;-58
2023/06/17 22:53:51;;;;;;;;;;;;;;;16.10;100.00;97520.31;18565701;32;19952;-58
2023/06/17 23:03:53;;;;;;;;;;;;;;;15.97;100.00;97508.34;18564556;32;19963;-58
2023/06/17 23:13:56;;;;;;;;;;;;;;;15.81;100.00;97505.16;18564086;32;19967;-57
2023/06/17 23:23:59;;;;;;;;;;;;;;;15.72;100.00;97498.84;18563090;32;20024;-58
2023/06/17 23:34:02;;;;;;;;;;;;;;;15.56;100.00;97482.81;18562875;32;19964;-57
2023/06/17 23:44:05;;;;;;;;;;;;;;;15.39;100.00;97480.75;18561945;32;19961;-57
2023/06/17 23:54:08;;;;;;;;;;;;;;;15.30;100.00;97481.78;18561889;32;19969;-57
